createdAt,value
2023-01-29T00:00:22.441Z,-2.14
2023-01-29T00:02:49.216Z,-2.12
2023-01-29T00:05:27.977Z,-2.25
2023-01-29T00:07:56.566Z,-2.18
2023-01-29T00:10:26.527Z,-2.27
2023-01-29T00:12:53.090Z,-2.44
2023-01-29T00:15:20.477Z,-2.43
2023-01-29T00:17:46.955Z,-2.30
2023-01-29T00:20:13.636Z,-2.24
2023-01-29T00:22:40.738Z,-2.21
2023-01-29T00:25:07.998Z,-2.12
2023-01-29T00:27:34.454Z,-2.01
2023-01-29T00:30:12.685Z,-2.10
2023-01-29T00:32:42.335Z,-2.15
2023-01-29T00:35:09.565Z,-2.44
2023-01-29T00:37:36.348Z,-2.64
2023-01-29T00:40:03.530Z,-2.63
2023-01-29T00:42:48.566Z,-2.52
2023-01-29T00:45:15.184Z,-2.46
2023-01-29T00:47:41.626Z,-2.42
2023-01-29T00:50:11.404Z,-2.27
2023-01-29T00:52:38.562Z,-2.24
2023-01-29T00:55:05.858Z,-2.17
2023-01-29T00:57:33.734Z,-2.15
2023-01-29T01:00:00.495Z,-2.14
2023-01-29T01:02:46.008Z,-2.15
2023-01-29T01:05:17.851Z,-2.05
2023-01-29T01:07:46.577Z,-2.10
2023-01-29T01:10:21.913Z,-2.38
2023-01-29T01:12:59.451Z,-2.59
2023-01-29T01:15:28.821Z,-2.66
2023-01-29T01:17:57.913Z,-2.62
2023-01-29T01:20:28.425Z,-2.63
2023-01-29T01:22:54.909Z,-2.61
2023-01-29T01:25:26.713Z,-2.65
2023-01-29T01:27:54.404Z,-2.62
2023-01-29T01:30:22.387Z,-2.67
2023-01-29T01:32:48.857Z,-2.67
2023-01-29T01:35:15.464Z,-2.66
2023-01-29T01:37:42.250Z,-2.60
2023-01-29T01:40:18.223Z,-2.55
2023-01-29T01:42:48.381Z,-2.48
2023-01-29T01:45:29.066Z,-2.43
2023-01-29T01:48:02.936Z,-2.34
2023-01-29T01:50:38.580Z,-2.29
2023-01-29T01:53:10.227Z,-2.28
2023-01-29T01:55:52.540Z,-2.24
2023-01-29T01:58:26.918Z,-2.44
2023-01-29T02:00:54.516Z,-2.64
2023-01-29T02:03:42.409Z,-2.74
2023-01-29T02:06:29.314Z,-2.79
2023-01-29T02:09:19.744Z,-2.70
2023-01-29T02:11:46.248Z,-2.62
2023-01-29T02:14:12.821Z,-2.64
2023-01-29T02:16:39.243Z,-2.53
2023-01-29T02:19:15.373Z,-2.47
2023-01-29T02:21:52.545Z,-2.38
2023-01-29T02:24:40.343Z,-2.47
2023-01-29T02:27:12.371Z,-2.63
2023-01-29T02:29:53.025Z,-2.76
2023-01-29T02:32:25.300Z,-2.78
2023-01-29T02:35:26.006Z,-2.88
2023-01-29T02:38:07.224Z,-2.93
2023-01-29T02:40:49.973Z,-2.98
2023-01-29T02:43:16.391Z,-2.92
2023-01-29T02:46:02.453Z,-2.89
2023-01-29T02:48:39.888Z,-2.81
2023-01-29T02:51:13.817Z,-2.75
2023-01-29T02:54:03.208Z,-2.64
2023-01-29T02:56:44.275Z,-2.60
2023-01-29T02:59:17.482Z,-2.58
2023-01-29T03:01:56.678Z,-2.57
2023-01-29T03:04:29.638Z,-2.50
2023-01-29T03:07:01.374Z,-2.49
2023-01-29T03:09:41.247Z,-2.42
2023-01-29T03:12:29.149Z,-2.41
2023-01-29T03:15:14.053Z,-2.42
2023-01-29T03:17:55.732Z,-2.39
2023-01-29T03:20:33.264Z,-2.35
2023-01-29T03:23:11.803Z,-2.30
2023-01-29T03:25:59.295Z,-2.47
2023-01-29T03:28:46.846Z,-2.70
2023-01-29T03:31:33.864Z,-2.88
2023-01-29T03:34:54.489Z,-2.96
2023-01-29T03:37:26.328Z,-2.98
2023-01-29T03:39:52.861Z,-3.00
2023-01-29T03:42:48.938Z,-3.17
2023-01-29T03:45:52.471Z,-3.07
2023-01-29T03:48:29.344Z,-2.97
2023-01-29T03:51:17.697Z,-2.90
2023-01-29T03:53:51.451Z,-2.81
2023-01-29T03:56:46.787Z,-2.83
2023-01-29T03:59:25.232Z,-2.76
2023-01-29T04:01:56.972Z,-2.71
2023-01-29T04:04:38.126Z,-2.67
2023-01-29T04:07:12.000Z,-2.69
2023-01-29T04:09:50.455Z,-2.68
2023-01-29T04:12:23.367Z,-2.67
2023-01-29T04:14:53.195Z,-2.75
2023-01-29T04:17:25.695Z,-2.85
2023-01-29T04:19:53.566Z,-2.76
2023-01-29T04:22:24.370Z,-2.73
2023-01-29T04:24:51.381Z,-2.78
2023-01-29T04:27:26.265Z,-2.95
2023-01-29T04:30:09.760Z,-2.95
2023-01-29T04:32:57.388Z,-2.96
2023-01-29T04:35:31.534Z,-2.87
2023-01-29T04:38:00.922Z,-2.76
2023-01-29T04:40:47.722Z,-2.73
2023-01-29T04:43:25.277Z,-2.72
2023-01-29T04:46:20.987Z,-2.80
2023-01-29T04:49:05.978Z,-2.95
2023-01-29T04:51:49.588Z,-2.98
2023-01-29T04:54:22.575Z,-3.04
2023-01-29T04:57:01.807Z,-3.00
2023-01-29T04:59:37.140Z,-2.98
2023-01-29T05:02:04.719Z,-3.05
2023-01-29T05:04:34.325Z,-2.95
2023-01-29T05:07:08.880Z,-2.94
2023-01-29T05:09:38.687Z,-2.98
2023-01-29T05:12:10.798Z,-2.92
2023-01-29T05:14:39.616Z,-2.91
2023-01-29T05:17:13.226Z,-2.91
2023-01-29T05:19:39.739Z,-2.96
2023-01-29T05:22:08.899Z,-2.96
2023-01-29T05:24:35.985Z,-2.98
2023-01-29T05:27:21.432Z,-2.92
2023-01-29T05:29:48.568Z,-2.89
2023-01-29T05:32:16.158Z,-2.89
2023-01-29T05:34:42.912Z,-2.89
2023-01-29T05:37:10.531Z,-2.92
2023-01-29T05:39:36.936Z,-2.92
2023-01-29T05:42:03.591Z,-2.91
2023-01-29T05:44:30.093Z,-2.86
2023-01-29T05:46:56.639Z,-2.77
2023-01-29T05:49:23.193Z,-2.67
2023-01-29T05:51:49.691Z,-2.56
2023-01-29T05:54:16.119Z,-2.51
2023-01-29T05:56:42.712Z,-2.44
2023-01-29T05:59:09.205Z,-2.38
2023-01-29T06:01:36.105Z,-2.37
2023-01-29T06:04:02.673Z,-2.42
2023-01-29T06:06:29.171Z,-2.40
2023-01-29T06:08:56.377Z,-2.32
2023-01-29T06:11:23.180Z,-2.29
2023-01-29T06:13:49.723Z,-2.26
2023-01-29T06:16:16.431Z,-2.27
2023-01-29T06:18:43.080Z,-2.22
2023-01-29T06:21:12.421Z,-2.23
2023-01-29T06:23:39.510Z,-2.19
2023-01-29T06:26:08.833Z,-2.10
2023-01-29T06:28:35.428Z,-2.08
2023-01-29T06:31:22.107Z,-2.04
2023-01-29T06:33:49.973Z,-2.05
2023-01-29T06:36:16.490Z,-2.08
2023-01-29T06:38:42.923Z,-2.06
2023-01-29T06:41:19.636Z,-2.03
2023-01-29T06:43:47.709Z,-2.02
2023-01-29T06:46:14.390Z,-1.99
2023-01-29T06:48:41.944Z,-2.01
2023-01-29T06:51:10.146Z,-2.00
2023-01-29T06:53:38.301Z,-1.98
2023-01-29T06:56:05.816Z,-1.95
2023-01-29T06:58:32.351Z,-1.96
2023-01-29T07:01:10.109Z,-1.94
2023-01-29T07:03:37.018Z,-1.93
2023-01-29T07:06:04.813Z,-1.94
2023-01-29T07:08:31.396Z,-1.88
2023-01-29T07:11:01.975Z,-1.90
2023-01-29T07:13:28.650Z,-1.97
2023-01-29T07:15:59.171Z,-1.91
2023-01-29T07:18:26.152Z,-1.90
2023-01-29T07:20:52.574Z,-1.88
2023-01-29T07:23:19.102Z,-1.89
2023-01-29T07:25:45.942Z,-1.90
2023-01-29T07:28:12.480Z,-1.83
2023-01-29T07:30:38.904Z,-1.83
2023-01-29T07:33:08.172Z,-1.79
2023-01-29T07:35:42.857Z,-1.79
2023-01-29T07:38:11.008Z,-1.77
2023-01-29T07:40:37.724Z,-1.73
2023-01-29T07:43:06.710Z,-1.71
2023-01-29T07:45:35.491Z,-1.76
2023-01-29T07:48:04.928Z,-1.66
2023-01-29T07:50:32.859Z,-1.64
2023-01-29T07:52:59.337Z,-1.62
2023-01-29T07:55:26.228Z,-1.61
2023-01-29T07:58:10.889Z,-1.61
2023-01-29T08:00:37.374Z,-1.54
2023-01-29T08:03:09.591Z,-1.54
2023-01-29T08:05:36.379Z,-1.55
2023-01-29T08:08:07.810Z,-1.60
2023-01-29T08:10:35.865Z,-1.55
2023-01-29T08:13:03.672Z,-1.53
2023-01-29T08:15:30.448Z,-1.53
2023-01-29T08:20:43.505Z,-1.49
2023-01-29T08:23:16.266Z,-1.50
2023-01-29T08:25:42.713Z,-1.51
2023-01-29T08:28:09.771Z,-1.51
2023-01-29T08:30:36.278Z,-1.49
2023-01-29T08:33:04.362Z,-1.45
2023-01-29T08:35:31.326Z,-1.48
2023-01-29T08:38:00.362Z,-1.44
2023-01-29T08:40:31.639Z,-1.49
2023-01-29T08:43:04.113Z,-1.40
2023-01-29T08:45:34.889Z,-1.39
2023-01-29T08:48:01.851Z,-1.40
2023-01-29T08:50:30.522Z,-1.39
2023-01-29T08:53:03.260Z,-1.41
2023-01-29T08:55:30.111Z,-1.38
2023-01-29T08:57:59.377Z,-1.30
2023-01-29T09:00:25.994Z,-1.27
2023-01-29T09:02:52.473Z,-1.20
2023-01-29T09:05:19.393Z,-1.19
2023-01-29T09:07:46.159Z,-1.19
2023-01-29T09:10:13.389Z,-1.16
2023-01-29T09:12:39.892Z,-1.16
2023-01-29T09:15:06.821Z,-1.10
2023-01-29T09:17:33.213Z,-1.08
2023-01-29T09:19:59.717Z,-1.08
2023-01-29T09:22:26.329Z,-1.06
2023-01-29T09:24:52.867Z,-1.06
2023-01-29T09:27:19.315Z,-1.04
2023-01-29T09:29:45.757Z,-1.01
2023-01-29T09:32:12.230Z,-1.02
2023-01-29T09:34:38.706Z,-1.01
2023-01-29T09:37:05.164Z,-0.99
2023-01-29T09:39:31.650Z,-0.97
2023-01-29T09:42:10.286Z,-0.94
2023-01-29T09:45:01.670Z,-0.88
2023-01-29T09:47:29.796Z,-0.84
2023-01-29T09:50:22.895Z,-0.85
2023-01-29T09:53:25.339Z,-0.83
2023-01-29T09:55:59.925Z,-0.75
2023-01-29T09:58:33.482Z,-0.71
2023-01-29T10:01:24.263Z,-0.64
2023-01-29T10:04:20.061Z,-0.64
2023-01-29T10:07:03.768Z,-0.62
2023-01-29T10:09:30.151Z,-0.60
2023-01-29T10:12:11.774Z,-0.53
2023-01-29T10:14:47.336Z,-0.45
2023-01-29T10:17:41.712Z,-0.42
2023-01-29T10:20:20.640Z,-0.39
2023-01-29T10:23:11.454Z,-0.37
2023-01-29T10:25:40.812Z,-0.38
2023-01-29T10:28:26.343Z,-0.35
2023-01-29T10:31:00.484Z,-0.32
2023-01-29T10:33:49.527Z,-0.25
2023-01-29T10:36:26.623Z,-0.23
2023-01-29T10:38:53.152Z,-0.28
2023-01-29T10:41:40.439Z,-0.27
2023-01-29T10:44:46.025Z,-0.25
2023-01-29T10:47:54.129Z,-0.23
2023-01-29T10:50:40.373Z,-0.17
2023-01-29T10:53:19.450Z,-0.12
2023-01-29T10:56:22.351Z,-0.11
2023-01-29T10:58:53.591Z,-0.09
2023-01-29T11:01:20.029Z,-0.07
2023-01-29T11:03:57.318Z,-0.02
2023-01-29T11:06:28.114Z,0.04
2023-01-29T11:09:05.999Z,0.10
2023-01-29T11:11:48.581Z,0.09
2023-01-29T11:14:22.869Z,0.13
2023-01-29T11:16:49.657Z,0.19
2023-01-29T11:19:16.934Z,0.21
2023-01-29T11:22:01.706Z,0.25
2023-01-29T11:24:28.576Z,0.30
2023-01-29T11:26:58.653Z,0.33
2023-01-29T11:29:47.950Z,0.33
2023-01-29T11:32:34.932Z,0.32
2023-01-29T11:35:15.067Z,0.32
2023-01-29T11:37:44.013Z,0.28
2023-01-29T11:40:19.656Z,0.32
2023-01-29T11:42:47.183Z,0.37
2023-01-29T11:45:22.787Z,0.34
2023-01-29T11:47:59.587Z,0.34
2023-01-29T11:50:29.140Z,0.31
2023-01-29T11:52:55.812Z,0.33
2023-01-29T11:55:24.609Z,0.33
2023-01-29T11:58:14.874Z,0.38
2023-01-29T12:00:45.708Z,0.39
2023-01-29T12:03:16.212Z,0.42
2023-01-29T12:05:56.514Z,0.45
2023-01-29T12:08:24.759Z,0.45
2023-01-29T12:10:51.428Z,0.48
2023-01-29T12:13:28.322Z,0.51
2023-01-29T12:16:20.181Z,0.52
2023-01-29T12:18:53.330Z,0.50
2023-01-29T12:21:43.296Z,0.54
2023-01-29T12:24:34.096Z,0.59
2023-01-29T12:27:27.759Z,0.58
2023-01-29T12:30:16.743Z,0.55
2023-01-29T12:32:55.491Z,0.56
2023-01-29T12:35:27.693Z,0.57
2023-01-29T12:37:54.045Z,0.56
2023-01-29T12:40:24.867Z,0.56
2023-01-29T12:42:57.426Z,0.57
2023-01-29T12:45:26.976Z,0.57
2023-01-29T12:48:11.333Z,0.63
2023-01-29T12:50:38.516Z,0.62
2023-01-29T12:53:30.288Z,0.66
2023-01-29T12:56:09.649Z,0.70
2023-01-29T12:58:57.327Z,0.71
2023-01-29T13:01:28.777Z,0.68
2023-01-29T13:04:11.685Z,0.64
2023-01-29T13:06:50.689Z,0.68
2023-01-29T13:09:25.355Z,0.66
2023-01-29T13:11:58.468Z,0.66
2023-01-29T13:14:40.837Z,0.69
2023-01-29T13:17:14.457Z,0.72
2023-01-29T13:19:45.497Z,0.74
2023-01-29T13:22:21.980Z,0.74
2023-01-29T13:24:58.713Z,0.78
2023-01-29T13:27:33.272Z,0.77
2023-01-29T13:30:00.395Z,0.79
2023-01-29T13:32:29.428Z,0.82
2023-01-29T13:34:59.824Z,0.81
2023-01-29T13:37:35.303Z,0.80
2023-01-29T13:40:05.316Z,0.78
2023-01-29T13:42:47.482Z,0.81
2023-01-29T13:45:32.925Z,0.80
2023-01-29T13:48:12.296Z,0.82
2023-01-29T13:50:42.215Z,0.83
2023-01-29T13:53:21.917Z,0.84
2023-01-29T13:55:48.767Z,0.83
2023-01-29T13:58:44.013Z,0.83
2023-01-29T14:01:10.463Z,0.82
2023-01-29T14:04:03.753Z,0.82
2023-01-29T14:06:41.384Z,0.80
2023-01-29T14:09:38.819Z,0.79
2023-01-29T14:12:25.285Z,0.80
2023-01-29T14:14:54.789Z,0.83
2023-01-29T14:17:21.421Z,0.81
2023-01-29T14:20:03.657Z,0.81
2023-01-29T14:22:32.631Z,0.84
2023-01-29T14:25:03.965Z,0.84
2023-01-29T14:27:32.056Z,0.84
2023-01-29T14:30:06.536Z,0.84
2023-01-29T14:32:33.683Z,0.89
2023-01-29T14:35:10.197Z,0.91
2023-01-29T14:37:40.329Z,0.90
2023-01-29T14:40:12.555Z,0.89
2023-01-29T14:42:46.704Z,0.88
2023-01-29T14:45:34.830Z,0.88
2023-01-29T14:48:10.419Z,0.88
2023-01-29T14:50:36.825Z,0.87
2023-01-29T14:53:31.746Z,0.88
2023-01-29T14:56:24.854Z,0.90
2023-01-29T14:58:56.224Z,0.89
2023-01-29T15:01:37.017Z,0.90
2023-01-29T15:04:05.299Z,0.91
2023-01-29T15:06:48.282Z,0.91
2023-01-29T15:09:22.069Z,0.91
2023-01-29T15:12:03.255Z,0.90
2023-01-29T15:14:37.889Z,0.90
2023-01-29T15:17:21.805Z,0.89
2023-01-29T15:19:49.090Z,0.88
2023-01-29T15:22:21.476Z,0.88
2023-01-29T15:25:03.171Z,0.90
2023-01-29T15:27:30.111Z,0.92
2023-01-29T15:29:59.501Z,0.92
2023-01-29T15:32:40.270Z,0.89
2023-01-29T15:35:33.161Z,0.88
2023-01-29T15:38:18.171Z,0.89
2023-01-29T15:41:16.129Z,0.91
2023-01-29T15:43:45.896Z,0.94
2023-01-29T15:46:22.630Z,0.91
2023-01-29T15:48:50.224Z,0.90
2023-01-29T15:51:20.418Z,0.92
2023-01-29T15:53:56.236Z,0.90
2023-01-29T15:56:28.136Z,0.91
2023-01-29T15:58:57.663Z,0.89
2023-01-29T16:01:27.260Z,0.89
2023-01-29T16:03:54.598Z,0.89
2023-01-29T16:06:22.902Z,0.90
2023-01-29T16:08:54.411Z,0.92
2023-01-29T16:11:21.617Z,0.91
2023-01-29T16:13:49.964Z,0.93
2023-01-29T16:16:16.439Z,0.96
2023-01-29T16:18:58.892Z,0.94
2023-01-29T16:21:38.554Z,0.94
2023-01-29T16:24:09.382Z,0.96
2023-01-29T16:26:44.780Z,0.96
2023-01-29T16:29:14.298Z,0.95
2023-01-29T16:31:42.977Z,1.01
2023-01-29T16:34:16.983Z,1.02
2023-01-29T16:36:48.256Z,1.03
2023-01-29T16:39:24.858Z,1.04
2023-01-29T16:42:10.639Z,1.07
2023-01-29T16:44:40.066Z,1.09
2023-01-29T16:47:15.861Z,1.11
2023-01-29T16:49:45.547Z,1.13
2023-01-29T16:52:23.243Z,1.18
2023-01-29T16:54:50.164Z,1.20
2023-01-29T16:57:22.985Z,1.20
2023-01-29T16:59:52.553Z,1.25
2023-01-29T17:02:27.427Z,1.30
2023-01-29T17:04:58.457Z,1.26
2023-01-29T17:07:25.730Z,1.28
2023-01-29T17:09:59.861Z,1.25
2023-01-29T17:12:28.047Z,1.25
2023-01-29T17:15:00.202Z,1.29
2023-01-29T17:17:36.096Z,1.30
2023-01-29T17:20:16.558Z,1.31
2023-01-29T17:22:44.609Z,1.34
2023-01-29T17:25:14.878Z,1.34
2023-01-29T17:27:45.177Z,1.31
2023-01-29T17:30:16.226Z,1.34
2023-01-29T17:32:44.155Z,1.36
2023-01-29T17:35:17.014Z,1.39
2023-01-29T17:37:44.402Z,1.40
2023-01-29T17:40:28.385Z,1.41
2023-01-29T17:42:54.814Z,1.40
2023-01-29T17:45:21.380Z,1.39
2023-01-29T17:47:47.831Z,1.42
2023-01-29T17:50:27.601Z,1.41
2023-01-29T17:52:54.415Z,1.41
2023-01-29T17:55:20.904Z,1.45
2023-01-29T17:57:48.270Z,1.43
2023-01-29T18:00:19.485Z,1.40
2023-01-29T18:02:46.101Z,1.38
2023-01-29T18:05:15.974Z,1.37
2023-01-29T18:07:45.173Z,1.35
2023-01-29T18:10:21.477Z,1.38
2023-01-29T18:12:48.037Z,1.37
2023-01-29T18:15:15.243Z,1.39
2023-01-29T18:17:42.543Z,1.39
2023-01-29T18:20:25.579Z,1.42
2023-01-29T18:22:52.651Z,1.41
2023-01-29T18:25:19.832Z,1.46
2023-01-29T18:27:46.585Z,1.44
2023-01-29T18:30:13.904Z,1.46
2023-01-29T18:32:40.715Z,1.48
2023-01-29T18:35:08.281Z,1.45
2023-01-29T18:37:35.251Z,1.43
2023-01-29T18:40:01.821Z,1.47
2023-01-29T18:42:31.606Z,1.47
2023-01-29T18:44:58.011Z,1.48
2023-01-29T18:47:25.716Z,1.49
2023-01-29T18:49:52.272Z,1.53
2023-01-29T18:52:18.834Z,1.49
2023-01-29T18:54:45.341Z,1.45
2023-01-29T18:57:14.271Z,1.47
2023-01-29T18:59:58.275Z,1.46
2023-01-29T19:02:24.792Z,1.46
2023-01-29T19:04:51.724Z,1.46
2023-01-29T19:07:18.185Z,1.44
2023-01-29T19:09:46.468Z,1.48
2023-01-29T19:12:13.097Z,1.50
2023-01-29T19:14:39.793Z,1.51
2023-01-29T19:17:06.409Z,1.51
2023-01-29T19:19:36.277Z,1.48
2023-01-29T19:22:02.873Z,1.52
2023-01-29T19:24:29.656Z,1.51
2023-01-29T19:26:56.159Z,1.49
2023-01-29T19:29:22.739Z,1.50
2023-01-29T19:31:49.247Z,1.46
2023-01-29T19:34:15.721Z,1.46
2023-01-29T19:36:42.889Z,1.46
2023-01-29T19:39:10.832Z,1.47
2023-01-29T19:41:37.294Z,1.46
2023-01-29T19:44:03.895Z,1.47
2023-01-29T19:46:30.302Z,1.48
2023-01-29T19:48:58.758Z,1.50
2023-01-29T19:51:28.201Z,1.49
2023-01-29T19:53:55.849Z,1.52
2023-01-29T19:56:22.324Z,1.54
2023-01-29T19:58:48.797Z,1.55
2023-01-29T20:01:20.654Z,1.52
2023-01-29T20:03:49.098Z,1.51
2023-01-29T20:06:18.384Z,1.51
2023-01-29T20:08:46.817Z,1.49
2023-01-29T20:11:15.157Z,1.51
2023-01-29T20:13:41.624Z,1.47
2023-01-29T20:16:08.246Z,1.50
2023-01-29T20:18:35.276Z,1.48
2023-01-29T20:21:10.522Z,1.47
2023-01-29T20:23:38.716Z,1.46
2023-01-29T20:26:11.919Z,1.44
2023-01-29T20:28:38.882Z,1.40
2023-01-29T20:31:07.004Z,1.40
2023-01-29T20:33:34.649Z,1.39
2023-01-29T20:36:04.656Z,1.36
2023-01-29T20:38:31.901Z,1.38
2023-01-29T20:41:08.458Z,1.40
2023-01-29T20:43:35.541Z,1.40
2023-01-29T20:46:02.470Z,1.39
2023-01-29T20:48:29.919Z,1.41
2023-01-29T20:50:57.010Z,1.41
2023-01-29T20:53:23.531Z,1.44
2023-01-29T20:55:50.092Z,1.46
2023-01-29T20:58:16.854Z,1.45
2023-01-29T21:00:44.465Z,1.48
2023-01-29T21:03:10.971Z,1.47
2023-01-29T21:05:37.425Z,1.47
2023-01-29T21:08:03.914Z,1.51
2023-01-29T21:10:30.395Z,1.51
2023-01-29T21:12:56.832Z,1.50
2023-01-29T21:15:24.651Z,1.51
2023-01-29T21:17:52.376Z,1.52
2023-01-29T21:20:19.254Z,1.49
2023-01-29T21:22:45.878Z,1.49
2023-01-29T21:25:12.349Z,1.49
2023-01-29T21:27:38.872Z,1.52
2023-01-29T21:30:05.932Z,1.51
2023-01-29T21:32:32.595Z,1.54
2023-01-29T21:34:59.015Z,1.52
2023-01-29T21:37:25.640Z,1.54
2023-01-29T21:39:52.188Z,1.57
2023-01-29T21:42:37.221Z,1.57
2023-01-29T21:45:04.281Z,1.56
2023-01-29T21:47:30.735Z,1.54
2023-01-29T21:49:57.214Z,1.56
2023-01-29T21:52:23.683Z,1.54
2023-01-29T21:54:50.212Z,1.54
2023-01-29T21:57:17.151Z,1.53
2023-01-29T21:59:43.792Z,1.56
2023-01-29T22:02:15.117Z,1.55
2023-01-29T22:04:42.417Z,1.63
2023-01-29T22:07:12.453Z,1.68
2023-01-29T22:09:39.129Z,1.73
2023-01-29T22:12:07.455Z,1.72
2023-01-29T22:14:34.363Z,1.78
2023-01-29T22:17:01.052Z,1.78
2023-01-29T22:19:29.233Z,1.92
2023-01-29T22:21:55.658Z,2.14
2023-01-29T22:24:22.392Z,2.21
2023-01-29T22:26:49.614Z,2.22
2023-01-29T22:29:17.047Z,2.27
2023-01-29T22:31:44.292Z,2.25
2023-01-29T22:34:12.267Z,2.32
2023-01-29T22:36:38.977Z,2.40
2023-01-29T22:39:07.586Z,2.37
2023-01-29T22:41:34.853Z,2.36
2023-01-29T22:44:01.576Z,2.38
2023-01-29T22:46:28.416Z,2.43
2023-01-29T22:48:54.859Z,2.46
2023-01-29T22:51:21.360Z,2.47
2023-01-29T22:53:53.459Z,2.46
2023-01-29T22:56:25.273Z,2.47
2023-01-29T22:58:53.661Z,2.46
2023-01-29T23:01:22.703Z,2.41
2023-01-29T23:03:49.191Z,2.44
2023-01-29T23:06:17.046Z,2.40
2023-01-29T23:08:43.703Z,2.47
2023-01-29T23:11:14.788Z,2.48
2023-01-29T23:13:54.679Z,2.43
2023-01-29T23:16:26.840Z,2.41
2023-01-29T23:18:55.690Z,2.46
2023-01-29T23:21:25.032Z,2.46
2023-01-29T23:24:01.467Z,2.49
2023-01-29T23:26:47.228Z,2.57
2023-01-29T23:29:14.217Z,2.58
2023-01-29T23:31:40.784Z,2.58
2023-01-29T23:34:07.358Z,2.54
2023-01-29T23:36:33.881Z,2.61
2023-01-29T23:39:00.363Z,2.59
2023-01-29T23:41:26.828Z,2.57
2023-01-29T23:43:53.300Z,2.63
2023-01-29T23:46:19.737Z,2.61
2023-01-29T23:48:46.180Z,2.61
2023-01-29T23:51:12.682Z,2.69
2023-01-29T23:53:39.150Z,2.69
2023-01-29T23:56:06.172Z,2.63
2023-01-29T23:58:33.453Z,2.61
